createdAt,value
2022-10-18T00:02:35.498Z,68.53
2022-10-18T00:07:37.351Z,68.57
2022-10-18T00:12:39.787Z,68.82
2022-10-18T00:17:41.621Z,68.67
2022-10-18T00:22:43.452Z,69.21
2022-10-18T00:27:45.255Z,69.45
2022-10-18T00:32:47.147Z,69.51
2022-10-18T00:37:48.965Z,69.37
2022-10-18T00:42:50.766Z,69.48
2022-10-18T00:48:02.987Z,69.60
2022-10-18T00:53:09.140Z,69.64
2022-10-18T00:58:14.022Z,69.67
2022-10-18T01:03:15.841Z,69.57
2022-10-18T01:08:43.938Z,69.50
2022-10-18T01:14:14.141Z,69.24
2022-10-18T01:19:43.837Z,69.55
2022-10-18T01:24:45.565Z,69.81
2022-10-18T01:30:07.685Z,70.65
2022-10-18T01:35:14.295Z,70.44
2022-10-18T01:40:20.744Z,69.87
2022-10-18T01:45:24.353Z,69.63
2022-10-18T01:50:34.673Z,70.30
2022-10-18T01:55:36.253Z,71.32
2022-10-18T02:00:52.364Z,70.95
2022-10-18T02:06:05.673Z,70.70
2022-10-18T02:11:10.897Z,71.14
2022-10-18T02:16:19.599Z,70.85
2022-10-18T02:21:22.858Z,70.75
2022-10-18T02:26:25.119Z,70.68
2022-10-18T02:31:46.906Z,71.13
2022-10-18T02:36:53.742Z,70.80
2022-10-18T02:41:56.898Z,71.12
2022-10-18T02:46:58.790Z,70.69
2022-10-18T02:52:00.680Z,70.90
2022-10-18T02:57:02.484Z,71.45
2022-10-18T03:02:04.574Z,71.42
2022-10-18T03:07:06.406Z,72.24
2022-10-18T03:12:08.461Z,72.21
2022-10-18T03:17:10.296Z,72.24
2022-10-18T03:22:12.222Z,72.13
2022-10-18T03:27:14.010Z,72.15
2022-10-18T03:32:15.867Z,72.42
2022-10-18T03:37:17.618Z,72.77
2022-10-18T03:42:19.365Z,73.23
2022-10-18T03:47:21.192Z,72.92
2022-10-18T03:52:22.933Z,73.27
2022-10-18T03:57:24.724Z,73.59
2022-10-18T04:02:26.591Z,73.57
2022-10-18T04:07:28.374Z,73.10
2022-10-18T04:12:30.392Z,73.27
2022-10-18T04:17:32.672Z,73.39
2022-10-18T04:22:34.869Z,72.73
2022-10-18T04:27:36.945Z,72.56
2022-10-18T04:32:38.960Z,72.00
2022-10-18T04:37:40.758Z,72.03
2022-10-18T04:42:42.558Z,71.77
2022-10-18T04:47:44.299Z,71.61
2022-10-18T04:52:46.172Z,71.69
2022-10-18T04:57:48.011Z,71.60
2022-10-18T05:02:49.851Z,71.50
2022-10-18T05:07:51.662Z,71.26
2022-10-18T05:12:53.393Z,71.50
2022-10-18T05:17:55.197Z,71.46
2022-10-18T05:22:58.054Z,71.16
2022-10-18T05:28:03.423Z,71.23
2022-10-18T05:33:12.847Z,71.55
2022-10-18T05:38:14.635Z,71.63
2022-10-18T05:43:17.915Z,71.22
2022-10-18T05:48:19.785Z,71.26
2022-10-18T05:53:38.111Z,71.13
2022-10-18T05:58:41.902Z,71.04
2022-10-18T06:03:43.816Z,71.13
2022-10-18T06:08:49.014Z,71.27
2022-10-18T06:13:52.270Z,71.21
2022-10-18T06:18:56.289Z,71.17
2022-10-18T06:23:59.361Z,71.40
2022-10-18T06:29:01.326Z,71.10
2022-10-18T06:34:03.392Z,71.53
2022-10-18T06:39:05.321Z,71.28
2022-10-18T06:44:13.923Z,71.43
2022-10-18T06:49:19.129Z,71.58
2022-10-18T06:54:21.474Z,71.54
2022-10-18T06:59:25.240Z,71.08
2022-10-18T07:04:30.668Z,70.84
2022-10-18T07:09:32.497Z,70.75
2022-10-18T07:14:34.369Z,70.94
2022-10-18T07:19:36.249Z,70.97
2022-10-18T07:24:38.155Z,70.67
2022-10-18T07:29:40.657Z,70.26
2022-10-18T07:34:42.481Z,69.81
2022-10-18T07:39:44.345Z,69.41
2022-10-18T07:44:46.252Z,69.60
2022-10-18T07:49:48.094Z,69.15
2022-10-18T07:59:57.286Z,68.85
2022-10-18T08:04:59.175Z,69.05
2022-10-18T08:10:01.039Z,70.02
2022-10-18T08:15:02.929Z,70.01
2022-10-18T08:20:12.065Z,70.01
2022-10-18T08:25:20.931Z,69.80
2022-10-18T08:30:23.817Z,69.10
2022-10-18T08:35:25.796Z,68.71
2022-10-18T08:40:28.462Z,68.52
2022-10-18T08:45:42.305Z,68.60
2022-10-18T08:50:45.625Z,67.92
2022-10-18T08:56:14.741Z,67.59
2022-10-18T09:01:25.347Z,67.05
2022-10-18T09:06:44.135Z,66.73
2022-10-18T09:12:32.606Z,66.15
2022-10-18T09:17:45.737Z,65.92
2022-10-18T09:23:20.607Z,65.96
2022-10-18T09:28:43.407Z,65.00
2022-10-18T09:34:03.061Z,64.91
2022-10-18T09:39:14.746Z,65.67
2022-10-18T09:44:22.343Z,66.39
2022-10-18T09:49:30.165Z,66.35
2022-10-18T09:54:38.028Z,66.51
2022-10-18T09:59:50.004Z,66.62
2022-10-18T10:04:54.422Z,66.09
2022-10-18T10:09:59.580Z,65.85
2022-10-18T10:15:20.019Z,65.37
2022-10-18T10:20:23.186Z,66.43
2022-10-18T10:25:38.275Z,65.13
2022-10-18T10:30:40.293Z,64.38
2022-10-18T10:35:53.635Z,63.10
2022-10-18T10:40:57.154Z,62.84
2022-10-18T10:45:58.874Z,62.58
2022-10-18T10:51:10.355Z,62.16
2022-10-18T10:56:25.247Z,61.26
2022-10-18T11:01:33.736Z,60.32
2022-10-18T11:06:50.377Z,60.86
2022-10-18T11:12:15.824Z,60.15
2022-10-18T11:17:26.676Z,60.56
2022-10-18T11:22:34.999Z,59.23
2022-10-18T11:27:44.521Z,59.74
2022-10-18T11:33:13.166Z,58.12
2022-10-18T11:38:23.913Z,58.16
2022-10-18T11:44:01.000Z,57.83
2022-10-18T11:49:17.005Z,56.69
2022-10-18T11:54:28.242Z,56.18
2022-10-18T11:59:38.640Z,56.18
2022-10-18T12:05:11.882Z,55.77
2022-10-18T12:10:26.327Z,56.10
2022-10-18T12:15:41.041Z,56.27
2022-10-18T12:20:49.805Z,57.50
2022-10-18T12:25:57.699Z,58.08
2022-10-18T12:31:27.067Z,57.74
2022-10-18T12:37:06.006Z,57.50
2022-10-18T12:42:25.721Z,58.33
2022-10-18T12:47:30.485Z,58.36
2022-10-18T12:52:37.496Z,57.52
2022-10-18T12:57:54.467Z,57.15
2022-10-18T13:03:18.067Z,56.85
2022-10-18T13:08:32.664Z,56.42
2022-10-18T13:13:56.115Z,56.24
2022-10-18T13:19:16.400Z,57.32
2022-10-18T13:24:26.207Z,57.42
2022-10-18T13:29:33.786Z,56.82
2022-10-18T13:34:39.191Z,56.45
2022-10-18T13:39:41.301Z,56.93
2022-10-18T13:44:44.900Z,57.01
2022-10-18T13:50:03.196Z,56.13
2022-10-18T13:55:35.471Z,56.47
2022-10-18T14:01:05.155Z,56.55
2022-10-18T14:06:38.579Z,56.67
2022-10-18T14:11:48.245Z,56.60
2022-10-18T14:16:57.071Z,56.79
2022-10-18T14:22:10.812Z,56.58
2022-10-18T14:27:20.354Z,57.36
2022-10-18T14:32:32.130Z,57.45
2022-10-18T14:37:36.010Z,57.66
2022-10-18T14:42:37.892Z,57.37
2022-10-18T14:47:40.032Z,57.51
2022-10-18T14:52:41.950Z,57.09
2022-10-18T14:57:43.875Z,56.95
2022-10-18T15:02:46.071Z,57.32
2022-10-18T15:07:49.083Z,57.57
2022-10-18T15:13:09.364Z,57.56
2022-10-18T15:18:24.367Z,57.71
2022-10-18T15:23:31.430Z,57.67
2022-10-18T15:28:49.573Z,56.77
2022-10-18T15:33:52.654Z,56.77
2022-10-18T15:39:04.180Z,56.72
2022-10-18T15:44:22.339Z,57.26
2022-10-18T15:49:24.263Z,58.25
2022-10-18T15:54:32.446Z,59.16
2022-10-18T15:59:34.482Z,59.46
2022-10-18T16:04:37.090Z,60.15
2022-10-18T16:09:39.008Z,60.40
2022-10-18T16:14:40.817Z,60.94
2022-10-18T16:19:44.419Z,61.79
2022-10-18T16:24:46.248Z,62.68
2022-10-18T16:29:48.027Z,63.28
2022-10-18T16:34:49.797Z,64.17
2022-10-18T16:39:51.606Z,64.46
2022-10-18T16:44:55.141Z,65.23
2022-10-18T16:49:57.129Z,65.85
2022-10-18T16:54:59.016Z,66.06
2022-10-18T17:00:00.926Z,66.28
2022-10-18T17:05:02.832Z,66.80
2022-10-18T17:10:05.122Z,67.02
2022-10-18T17:15:09.181Z,67.66
2022-10-18T17:20:20.515Z,67.76
2022-10-18T17:25:22.614Z,68.42
2022-10-18T17:30:24.417Z,68.60
2022-10-18T17:35:26.222Z,68.54
2022-10-18T17:40:28.114Z,68.61
2022-10-18T17:45:30.032Z,68.75
2022-10-18T17:50:31.964Z,68.58
2022-10-18T17:55:36.599Z,69.13
2022-10-18T18:00:38.455Z,69.37
2022-10-18T18:05:40.335Z,69.04
2022-10-18T18:10:42.437Z,69.80
2022-10-18T18:15:44.316Z,70.38
2022-10-18T18:20:54.980Z,70.16
2022-10-18T18:25:58.196Z,70.13
2022-10-18T18:31:01.196Z,70.23
2022-10-18T18:36:05.004Z,70.17
2022-10-18T18:41:15.981Z,70.32
2022-10-18T18:46:18.288Z,70.11
2022-10-18T18:51:21.746Z,69.80
2022-10-18T18:56:25.450Z,70.31
2022-10-18T19:01:33.053Z,70.15
2022-10-18T19:06:43.298Z,70.44
2022-10-18T19:11:48.404Z,70.28
2022-10-18T19:16:54.925Z,70.42
2022-10-18T19:22:01.785Z,69.98
2022-10-18T19:27:08.844Z,70.04
2022-10-18T19:32:12.368Z,70.12
2022-10-18T19:37:15.357Z,70.62
2022-10-18T19:42:20.518Z,70.17
2022-10-18T19:47:27.956Z,70.22
2022-10-18T19:52:29.925Z,70.29
2022-10-18T19:57:32.508Z,70.68
2022-10-18T20:02:34.889Z,70.51
2022-10-18T20:07:36.932Z,70.20
2022-10-18T20:12:38.828Z,70.31
2022-10-18T20:17:40.666Z,71.00
2022-10-18T20:22:42.451Z,71.06
2022-10-18T20:27:44.468Z,70.82
2022-10-18T20:32:46.414Z,70.82
2022-10-18T20:37:48.598Z,71.05
2022-10-18T20:42:52.778Z,71.08
2022-10-18T20:47:55.784Z,71.37
2022-10-18T20:52:57.890Z,71.52
2022-10-18T20:57:59.678Z,71.33
2022-10-18T21:03:02.125Z,71.50
2022-10-18T21:08:04.236Z,71.70
2022-10-18T21:13:05.968Z,71.35
2022-10-18T21:18:07.856Z,71.59
2022-10-18T21:23:09.768Z,71.39
2022-10-18T21:28:11.548Z,70.86
2022-10-18T21:33:13.480Z,71.39
2022-10-18T21:38:15.210Z,71.30
2022-10-18T21:43:16.958Z,70.78
2022-10-18T21:48:18.969Z,71.08
2022-10-18T21:53:21.734Z,71.01
2022-10-18T21:58:23.535Z,70.73
2022-10-18T22:03:25.498Z,70.59
2022-10-18T22:08:27.587Z,70.83
2022-10-18T22:13:29.476Z,70.33
2022-10-18T22:18:32.667Z,70.35
2022-10-18T22:23:37.147Z,70.59
2022-10-18T22:28:40.780Z,70.43
2022-10-18T22:33:42.998Z,70.30
2022-10-18T22:38:44.736Z,70.20
2022-10-18T22:43:47.839Z,70.49
2022-10-18T22:48:49.747Z,70.83
2022-10-18T22:53:51.570Z,70.70
2022-10-18T22:58:53.552Z,70.52
2022-10-18T23:03:57.807Z,70.52
2022-10-18T23:09:01.838Z,70.17
2022-10-18T23:14:06.113Z,70.49
2022-10-18T23:19:07.853Z,70.27
2022-10-18T23:24:09.607Z,70.10
2022-10-18T23:29:11.459Z,69.73
2022-10-18T23:34:13.312Z,69.88
2022-10-18T23:39:15.074Z,69.78
2022-10-18T23:44:16.783Z,70.16
2022-10-18T23:49:18.533Z,70.30
2022-10-18T23:54:20.453Z,70.62
2022-10-18T23:59:22.399Z,70.25
